カンクン国際空港の過去48時間の天気

カンクン国際空港 (Cancun International Airport)

現在時刻: 9/22 16:25 CDT (9/22 21:25 UTC) 以下の時間は現地時間です。

過去48時間のMETAR気象情報
時間 風向 風速(m/s) 視程 気温(℃) 湿度(%) 気圧(hPa) 天気現象
22 15:46 3 10km以上 31 66 1011.7
22 14:45 北北東 4 10km以上 30 70 1012
22 13:46 東北東 3 10km以上 30 70 1012
22 12:47 北北東 3 10km以上 32 63 1013
22 11:48 東北東 3 10km以上 31 70 1014
22 10:42 東北東 3 10km以上 30 75 1014
22 09:50 東北東 3 10km以上 30 70 1014.2
22 08:52 3 10km以上 30 75 1014
22 07:55 東南東 2 10km以上 29 84 1013
22 06:45 東北東 2 10km以上 26 94 1012.4
22 05:46 3 10km以上 27 89 1012
22 04:47 3 10km以上 27 84 1012
22 03:48 3 10km以上 27 84 1011.8
22 02:43 4 10km以上 27 89 1012
22 01:45 東北東 4 10km以上 27 89 1013
22 00:45 4 10km以上 27 89 1013.1
21 23:47 東北東 3 10km以上 27 89 1014
21 22:48 北東 3 10km以上 27 89 1014
21 21:49 北東 3 10km以上 27 89 1013.5
21 20:46 北東 2 10km以上 27 84 1013
21 19:43 5 10km以上 28 84 1012
21 18:44 東北東 3 10km以上 28 84 1012.1
21 17:46 東北東 2 10km以上 28 84 1013
21 16:47 東北東 6 10km以上 28 84 1012
21 15:48 東北東 3 10km以上 30 70 1012.4
21 15:02 東南東 5 10km以上 29 79 1012
21 14:48 東北東 5 10km以上 30 75 1013 弱い雨
MMUN 222046Z 01005KT 7SM SCT015 BKN250 31/24 A2987 RMK SLP117 57013 957 8/108 ISOL MDT CU TCU SSW
MMUN 221945Z 03007KT 7SM SCT015TCU BKN250 30/24 A2988 RMK 8/208 AC AS
MMUN 221846Z 06005KT 7SM SCT015 BKN250 30/24 A2989 RMK 8/108 SC CB NW
MMUN 221747Z 03005KT 7SM SCT015TCU BKN230 32/24 A2991 RMK SLP130 58012 955 8/203 AC CB AND PCPN SW
MMUN 221648Z 06005KT 7SM SCT015CB 31/25 A2993 RMK 8/300 PCPN SWS WNW CI
MMUN 221542Z 06006KT 7SM BKN015TCU 30/25 A2995 RMK 8/200
MMUN 221450Z 06006KT 7SM SCT015TCU 30/24 A2995 RMK SLP142 52018 900 8/200
MMUN 221352Z 10005KT 7SM SCT015 30/25 A2994 RMK 8/100
MMUN 221255Z 12004KT 7SM SCT015 29/26 A2992 RMK 8/100
MMUN 221145Z 07004KT 7SM SCT015 26/25 A2989 RMK SLP124 51006 956 8/100 OCNL RA CI
MMUN 221046Z 10005KT 7SM SCT015 27/25 A2989 RMK 8/100 CI
MMUN 220947Z 09006KT 7SM SCT015 27/24 A2988 RMK 8/100 CI
MMUN 220848Z 09006KT 7SM SCT015 27/24 A2988 RMK SLP118 57013 952 8/100 CI
MMUN 220743Z 10007KT 7SM SCT015 27/25 A2989 RMK 8/100
MMUN 220645Z 07007KT 7SM SCT015 27/25 A2991 RMK 8/500
MMUN 220545Z 10008KT 7SM FEW015 27/25 A2993 RMK SLP131 58004 902 8/500
MMUN 220447Z 07006KT 7SM SKC 27/25 A2994 RMK SC
MMUN 220348Z 04005KT 7SM SKC 27/25 A2995
MMUN 220249Z 05005KT 7SM SKC 27/25 A2994 RMK SLP135 52014 951 SC
MMUN 220146Z 05004KT 7SM SKC 27/24 A2992 RMK SC
MMUN 220043Z 08009KT 7SM FEW015 SCT250 28/25 A2988 RMK 8/508 CU
MMUN 212344Z 07006KT 7SM FEW012TCU SCT080 BKN250 28/25 A2989 RMK SLP121 58003 951 8/278
MMUN 212246Z 07004KT 7SM FEW020 SCT080 BKN250 28/25 A2991 RMK 8/478 CU 4TH QUAD
MMUN 212147Z 07011KT 7SM BKN015CB BKN250 28/25 A2988 RMK 8/308 OCNL DROPS AC PCPN N
MMUN 212048Z 06006KT 7SM FEW015TCU SCT080 BKN250 30/24 A2989 RMK SLP124 57011 910 60005 8/263 SC CB AND PCPN NW
MMUN 212002Z 12009KT 7SM BKN015CB BKN250 29/25 A2989 RMK 8/308 RAE55
MMUN 211948Z 07010KT 6SM -RA BKN015CB BKN250 30/25 A2990 RMK 60005 8/308 RAB45